sensor_id;sensor_type;location;lat;lon;timestamp;P1;durP1;ratioP1;P2;durP2;ratioP2
60612;SDS011;46443;59.792;17.626;2022-07-22T00:02:02;10.80;;;7.82;;
60612;SDS011;46443;59.792;17.626;2022-07-22T00:04:28;11.93;;;7.40;;
60612;SDS011;46443;59.792;17.626;2022-07-22T00:06:54;9.23;;;7.70;;
60612;SDS011;46443;59.792;17.626;2022-07-22T00:09:21;8.52;;;7.30;;
60612;SDS011;46443;59.792;17.626;2022-07-22T00:11:47;10.38;;;7.85;;
60612;SDS011;46443;59.792;17.626;2022-07-22T00:14:12;9.40;;;7.88;;
60612;SDS011;46443;59.792;17.626;2022-07-22T00:16:39;10.40;;;7.80;;
60612;SDS011;46443;59.792;17.626;2022-07-22T00:19:05;13.20;;;8.90;;
60612;SDS011;46443;59.792;17.626;2022-07-22T00:21:31;11.27;;;8.40;;
60612;SDS011;46443;59.792;17.626;2022-07-22T00:23:57;11.43;;;8.20;;
60612;SDS011;46443;59.792;17.626;2022-07-22T00:26:22;13.67;;;8.87;;
60612;SDS011;46443;59.792;17.626;2022-07-22T00:28:48;11.73;;;8.70;;
60612;SDS011;46443;59.792;17.626;2022-07-22T00:31:14;12.37;;;8.30;;
60612;SDS011;46443;59.792;17.626;2022-07-22T00:33:40;10.87;;;8.03;;
60612;SDS011;46443;59.792;17.626;2022-07-22T00:36:07;16.33;;;8.90;;
60612;SDS011;46443;59.792;17.626;2022-07-22T00:38:33;11.53;;;8.53;;
60612;SDS011;46443;59.792;17.626;2022-07-22T00:40:59;11.83;;;8.00;;
60612;SDS011;46443;59.792;17.626;2022-07-22T00:43:25;10.27;;;8.07;;
60612;SDS011;46443;59.792;17.626;2022-07-22T00:45:51;10.43;;;8.23;;
60612;SDS011;46443;59.792;17.626;2022-07-22T00:48:17;11.83;;;8.20;;
60612;SDS011;46443;59.792;17.626;2022-07-22T00:50:43;10.40;;;8.60;;
60612;SDS011;46443;59.792;17.626;2022-07-22T00:53:09;15.83;;;8.43;;
60612;SDS011;46443;59.792;17.626;2022-07-22T00:55:36;10.97;;;8.47;;
60612;SDS011;46443;59.792;17.626;2022-07-22T00:58:03;11.30;;;8.57;;
60612;SDS011;46443;59.792;17.626;2022-07-22T01:00:29;12.07;;;8.80;;
60612;SDS011;46443;59.792;17.626;2022-07-22T01:02:55;10.37;;;7.80;;
60612;SDS011;46443;59.792;17.626;2022-07-22T01:05:21;11.60;;;8.70;;
60612;SDS011;46443;59.792;17.626;2022-07-22T01:07:47;10.33;;;8.03;;
60612;SDS011;46443;59.792;17.626;2022-07-22T01:10:13;10.50;;;8.33;;
60612;SDS011;46443;59.792;17.626;2022-07-22T01:12:39;9.20;;;7.93;;
60612;SDS011;46443;59.792;17.626;2022-07-22T01:15:06;11.73;;;9.13;;
60612;SDS011;46443;59.792;17.626;2022-07-22T01:17:32;9.90;;;8.07;;
60612;SDS011;46443;59.792;17.626;2022-07-22T01:20:02;10.60;;;7.73;;
60612;SDS011;46443;59.792;17.626;2022-07-22T01:22:29;11.87;;;8.33;;
60612;SDS011;46443;59.792;17.626;2022-07-22T01:24:56;11.90;;;8.10;;
60612;SDS011;46443;59.792;17.626;2022-07-22T01:27:22;10.73;;;7.50;;
60612;SDS011;46443;59.792;17.626;2022-07-22T01:29:48;10.70;;;7.77;;
60612;SDS011;46443;59.792;17.626;2022-07-22T01:32:14;10.93;;;7.50;;
60612;SDS011;46443;59.792;17.626;2022-07-22T01:34:40;10.37;;;7.90;;
60612;SDS011;46443;59.792;17.626;2022-07-22T01:37:08;11.13;;;7.43;;
60612;SDS011;46443;59.792;17.626;2022-07-22T01:39:34;10.03;;;7.43;;
60612;SDS011;46443;59.792;17.626;2022-07-22T01:42:00;11.20;;;8.00;;
60612;SDS011;46443;59.792;17.626;2022-07-22T01:44:26;11.07;;;8.10;;
60612;SDS011;46443;59.792;17.626;2022-07-22T01:46:52;9.27;;;7.60;;
60612;SDS011;46443;59.792;17.626;2022-07-22T01:49:19;10.53;;;7.67;;
60612;SDS011;46443;59.792;17.626;2022-07-22T01:51:46;11.60;;;7.63;;
60612;SDS011;46443;59.792;17.626;2022-07-22T01:54:12;10.40;;;7.83;;
60612;SDS011;46443;59.792;17.626;2022-07-22T01:56:38;11.67;;;7.63;;
60612;SDS011;46443;59.792;17.626;2022-07-22T01:59:04;14.87;;;8.93;;
60612;SDS011;46443;59.792;17.626;2022-07-22T02:01:30;9.50;;;7.20;;
60612;SDS011;46443;59.792;17.626;2022-07-22T02:03:56;9.60;;;7.87;;
60612;SDS011;46443;59.792;17.626;2022-07-22T02:06:22;12.50;;;8.07;;
60612;SDS011;46443;59.792;17.626;2022-07-22T02:08:48;12.57;;;7.83;;
60612;SDS011;46443;59.792;17.626;2022-07-22T02:11:14;10.57;;;7.70;;
60612;SDS011;46443;59.792;17.626;2022-07-22T02:13:40;11.03;;;7.87;;
60612;SDS011;46443;59.792;17.626;2022-07-22T02:16:06;11.23;;;7.47;;
60612;SDS011;46443;59.792;17.626;2022-07-22T02:18:32;12.13;;;7.83;;
60612;SDS011;46443;59.792;17.626;2022-07-22T02:20:58;11.57;;;7.77;;
60612;SDS011;46443;59.792;17.626;2022-07-22T02:23:24;11.83;;;7.87;;
60612;SDS011;46443;59.792;17.626;2022-07-22T02:25:50;10.97;;;7.50;;
60612;SDS011;46443;59.792;17.626;2022-07-22T02:28:16;11.50;;;7.77;;
60612;SDS011;46443;59.792;17.626;2022-07-22T02:30:42;10.27;;;7.97;;
60612;SDS011;46443;59.792;17.626;2022-07-22T02:33:08;9.40;;;7.30;;
60612;SDS011;46443;59.792;17.626;2022-07-22T02:35:34;12.00;;;7.97;;
60612;SDS011;46443;59.792;17.626;2022-07-22T02:38:00;11.80;;;8.03;;
60612;SDS011;46443;59.792;17.626;2022-07-22T02:40:26;10.70;;;7.90;;
60612;SDS011;46443;59.792;17.626;2022-07-22T02:42:52;10.13;;;8.10;;
60612;SDS011;46443;59.792;17.626;2022-07-22T02:45:18;11.30;;;8.20;;
60612;SDS011;46443;59.792;17.626;2022-07-22T02:47:45;9.07;;;7.23;;
60612;SDS011;46443;59.792;17.626;2022-07-22T02:50:11;10.73;;;7.70;;
60612;SDS011;46443;59.792;17.626;2022-07-22T02:52:38;11.13;;;7.40;;
60612;SDS011;46443;59.792;17.626;2022-07-22T02:55:04;10.50;;;7.77;;
60612;SDS011;46443;59.792;17.626;2022-07-22T02:57:30;10.73;;;7.47;;
60612;SDS011;46443;59.792;17.626;2022-07-22T02:59:56;11.43;;;7.50;;
60612;SDS011;46443;59.792;17.626;2022-07-22T03:02:22;9.70;;;7.57;;
60612;SDS011;46443;59.792;17.626;2022-07-22T03:04:48;9.70;;;7.30;;
60612;SDS011;46443;59.792;17.626;2022-07-22T03:07:14;10.37;;;7.97;;
60612;SDS011;46443;59.792;17.626;2022-07-22T03:09:41;12.60;;;8.07;;
60612;SDS011;46443;59.792;17.626;2022-07-22T03:12:07;12.47;;;8.00;;
60612;SDS011;46443;59.792;17.626;2022-07-22T03:14:33;10.50;;;7.60;;
60612;SDS011;46443;59.792;17.626;2022-07-22T03:16:59;9.33;;;7.30;;
60612;SDS011;46443;59.792;17.626;2022-07-22T03:19:25;11.30;;;7.17;;
60612;SDS011;46443;59.792;17.626;2022-07-22T03:21:50;10.73;;;7.47;;
60612;SDS011;46443;59.792;17.626;2022-07-22T03:24:17;11.20;;;7.57;;
60612;SDS011;46443;59.792;17.626;2022-07-22T03:26:43;8.80;;;7.27;;
60612;SDS011;46443;59.792;17.626;2022-07-22T03:29:09;10.87;;;7.70;;
60612;SDS011;46443;59.792;17.626;2022-07-22T03:31:34;11.07;;;7.73;;
60612;SDS011;46443;59.792;17.626;2022-07-22T03:34:01;10.23;;;7.37;;
60612;SDS011;46443;59.792;17.626;2022-07-22T03:36:27;11.17;;;7.73;;
60612;SDS011;46443;59.792;17.626;2022-07-22T03:38:56;10.60;;;7.32;;
60612;SDS011;46443;59.792;17.626;2022-07-22T03:41:22;10.10;;;7.20;;
60612;SDS011;46443;59.792;17.626;2022-07-22T03:43:48;11.00;;;7.80;;
60612;SDS011;46443;59.792;17.626;2022-07-22T03:46:14;9.23;;;7.30;;
60612;SDS011;46443;59.792;17.626;2022-07-22T03:48:40;9.87;;;7.43;;
60612;SDS011;46443;59.792;17.626;2022-07-22T03:51:06;11.47;;;7.40;;
60612;SDS011;46443;59.792;17.626;2022-07-22T03:53:32;9.80;;;7.07;;
60612;SDS011;46443;59.792;17.626;2022-07-22T03:55:59;11.30;;;7.60;;
60612;SDS011;46443;59.792;17.626;2022-07-22T03:58:25;9.73;;;6.80;;
60612;SDS011;46443;59.792;17.626;2022-07-22T04:00:52;9.93;;;7.00;;
60612;SDS011;46443;59.792;17.626;2022-07-22T04:03:18;11.00;;;7.40;;
60612;SDS011;46443;59.792;17.626;2022-07-22T04:05:44;11.90;;;7.73;;
60612;SDS011;46443;59.792;17.626;2022-07-22T04:08:11;10.60;;;6.77;;
60612;SDS011;46443;59.792;17.626;2022-07-22T04:10:37;10.80;;;6.90;;
60612;SDS011;46443;59.792;17.626;2022-07-22T04:13:04;8.50;;;6.67;;
60612;SDS011;46443;59.792;17.626;2022-07-22T04:15:30;9.60;;;6.90;;
60612;SDS011;46443;59.792;17.626;2022-07-22T04:17:56;9.70;;;6.63;;
60612;SDS011;46443;59.792;17.626;2022-07-22T04:20:22;11.77;;;6.60;;
60612;SDS011;46443;59.792;17.626;2022-07-22T04:22:48;9.60;;;6.83;;
60612;SDS011;46443;59.792;17.626;2022-07-22T04:25:14;13.67;;;6.10;;
60612;SDS011;46443;59.792;17.626;2022-07-22T04:27:40;8.10;;;5.93;;
60612;SDS011;46443;59.792;17.626;2022-07-22T04:30:06;8.03;;;5.77;;
60612;SDS011;46443;59.792;17.626;2022-07-22T04:32:32;12.00;;;7.10;;
60612;SDS011;46443;59.792;17.626;2022-07-22T04:34:58;11.07;;;6.43;;
60612;SDS011;46443;59.792;17.626;2022-07-22T04:37:24;11.00;;;6.60;;
60612;SDS011;46443;59.792;17.626;2022-07-22T04:39:50;9.33;;;6.00;;
60612;SDS011;46443;59.792;17.626;2022-07-22T04:42:16;9.07;;;5.73;;
60612;SDS011;46443;59.792;17.626;2022-07-22T04:44:42;11.53;;;6.63;;
60612;SDS011;46443;59.792;17.626;2022-07-22T04:47:09;8.83;;;6.10;;
60612;SDS011;46443;59.792;17.626;2022-07-22T04:49:35;10.37;;;6.03;;
60612;SDS011;46443;59.792;17.626;2022-07-22T04:52:01;7.67;;;5.67;;
60612;SDS011;46443;59.792;17.626;2022-07-22T04:54:28;11.93;;;6.17;;
60612;SDS011;46443;59.792;17.626;2022-07-22T04:56:54;10.37;;;5.87;;
60612;SDS011;46443;59.792;17.626;2022-07-22T04:59:20;10.17;;;6.40;;
60612;SDS011;46443;59.792;17.626;2022-07-22T05:01:46;10.73;;;6.40;;
60612;SDS011;46443;59.792;17.626;2022-07-22T05:04:12;8.63;;;5.70;;
60612;SDS011;46443;59.792;17.626;2022-07-22T05:06:38;11.20;;;6.50;;
60612;SDS011;46443;59.792;17.626;2022-07-22T05:09:04;11.00;;;6.20;;
60612;SDS011;46443;59.792;17.626;2022-07-22T05:11:30;11.23;;;6.33;;
60612;SDS011;46443;59.792;17.626;2022-07-22T05:13:56;7.83;;;5.43;;
60612;SDS011;46443;59.792;17.626;2022-07-22T05:16:22;9.90;;;5.60;;
60612;SDS011;46443;59.792;17.626;2022-07-22T05:18:48;8.60;;;5.90;;
60612;SDS011;46443;59.792;17.626;2022-07-22T05:21:14;10.80;;;5.60;;
60612;SDS011;46443;59.792;17.626;2022-07-22T05:23:40;9.27;;;5.87;;
60612;SDS011;46443;59.792;17.626;2022-07-22T05:26:07;7.90;;;6.40;;
60612;SDS011;46443;59.792;17.626;2022-07-22T05:28:34;9.23;;;5.80;;
60612;SDS011;46443;59.792;17.626;2022-07-22T05:31:00;9.83;;;6.60;;
60612;SDS011;46443;59.792;17.626;2022-07-22T05:33:26;9.87;;;5.70;;
60612;SDS011;46443;59.792;17.626;2022-07-22T05:35:52;8.20;;;5.57;;
60612;SDS011;46443;59.792;17.626;2022-07-22T05:38:18;11.20;;;5.97;;
60612;SDS011;46443;59.792;17.626;2022-07-22T05:40:44;9.93;;;5.93;;
60612;SDS011;46443;59.792;17.626;2022-07-22T05:43:10;9.90;;;5.67;;
60612;SDS011;46443;59.792;17.626;2022-07-22T05:45:36;9.07;;;5.90;;
60612;SDS011;46443;59.792;17.626;2022-07-22T05:48:02;8.37;;;5.67;;
60612;SDS011;46443;59.792;17.626;2022-07-22T05:50:28;10.90;;;5.80;;
60612;SDS011;46443;59.792;17.626;2022-07-22T05:52:54;8.60;;;5.90;;
60612;SDS011;46443;59.792;17.626;2022-07-22T05:55:20;10.33;;;5.70;;
60612;SDS011;46443;59.792;17.626;2022-07-22T05:57:46;10.83;;;5.33;;
60612;SDS011;46443;59.792;17.626;2022-07-22T06:00:12;11.23;;;5.63;;
60612;SDS011;46443;59.792;17.626;2022-07-22T06:02:38;9.43;;;5.90;;
60612;SDS011;46443;59.792;17.626;2022-07-22T06:05:04;12.23;;;5.53;;
60612;SDS011;46443;59.792;17.626;2022-07-22T06:07:30;10.30;;;6.33;;
60612;SDS011;46443;59.792;17.626;2022-07-22T06:09:56;9.30;;;5.63;;
60612;SDS011;46443;59.792;17.626;2022-07-22T06:12:22;13.27;;;5.90;;
60612;SDS011;46443;59.792;17.626;2022-07-22T06:14:48;11.07;;;4.93;;
60612;SDS011;46443;59.792;17.626;2022-07-22T06:17:14;9.93;;;4.87;;
60612;SDS011;46443;59.792;17.626;2022-07-22T06:19:40;10.03;;;5.30;;
60612;SDS011;46443;59.792;17.626;2022-07-22T06:22:06;10.03;;;5.00;;
60612;SDS011;46443;59.792;17.626;2022-07-22T06:24:32;11.30;;;4.90;;
60612;SDS011;46443;59.792;17.626;2022-07-22T06:26:58;10.00;;;4.63;;
60612;SDS011;46443;59.792;17.626;2022-07-22T06:29:24;8.93;;;4.90;;
60612;SDS011;46443;59.792;17.626;2022-07-22T06:31:50;7.90;;;4.47;;
60612;SDS011;46443;59.792;17.626;2022-07-22T06:34:16;9.30;;;4.30;;
60612;SDS011;46443;59.792;17.626;2022-07-22T06:36:42;8.43;;;4.33;;
60612;SDS011;46443;59.792;17.626;2022-07-22T06:39:08;10.43;;;4.70;;
60612;SDS011;46443;59.792;17.626;2022-07-22T06:41:34;7.63;;;4.30;;
60612;SDS011;46443;59.792;17.626;2022-07-22T06:44:00;7.70;;;4.47;;
60612;SDS011;46443;59.792;17.626;2022-07-22T06:46:26;8.03;;;4.00;;
60612;SDS011;46443;59.792;17.626;2022-07-22T06:48:52;6.53;;;4.20;;
60612;SDS011;46443;59.792;17.626;2022-07-22T06:51:18;9.87;;;4.23;;
60612;SDS011;46443;59.792;17.626;2022-07-22T06:53:44;5.73;;;3.77;;
60612;SDS011;46443;59.792;17.626;2022-07-22T06:56:10;7.63;;;3.63;;
60612;SDS011;46443;59.792;17.626;2022-07-22T06:58:37;8.77;;;4.13;;
60612;SDS011;46443;59.792;17.626;2022-07-22T07:01:03;8.10;;;3.50;;
60612;SDS011;46443;59.792;17.626;2022-07-22T07:03:29;9.03;;;3.80;;
60612;SDS011;46443;59.792;17.626;2022-07-22T07:05:55;9.17;;;3.60;;
60612;SDS011;46443;59.792;17.626;2022-07-22T07:08:21;8.07;;;4.07;;
60612;SDS011;46443;59.792;17.626;2022-07-22T07:10:47;5.53;;;3.60;;
60612;SDS011;46443;59.792;17.626;2022-07-22T07:13:13;8.87;;;3.93;;
60612;SDS011;46443;59.792;17.626;2022-07-22T07:15:39;5.90;;;3.20;;
60612;SDS011;46443;59.792;17.626;2022-07-22T07:18:05;7.97;;;3.60;;
60612;SDS011;46443;59.792;17.626;2022-07-22T07:20:31;7.53;;;3.40;;
60612;SDS011;46443;59.792;17.626;2022-07-22T07:22:59;4.80;;;3.17;;
60612;SDS011;46443;59.792;17.626;2022-07-22T07:25:27;7.25;;;3.53;;
60612;SDS011;46443;59.792;17.626;2022-07-22T07:27:53;7.43;;;3.40;;
60612;SDS011;46443;59.792;17.626;2022-07-22T07:30:19;6.23;;;3.53;;
60612;SDS011;46443;59.792;17.626;2022-07-22T07:32:45;5.47;;;3.40;;
60612;SDS011;46443;59.792;17.626;2022-07-22T07:35:10;8.67;;;3.73;;
60612;SDS011;46443;59.792;17.626;2022-07-22T07:37:37;8.67;;;3.53;;
60612;SDS011;46443;59.792;17.626;2022-07-22T07:40:03;7.40;;;3.43;;
60612;SDS011;46443;59.792;17.626;2022-07-22T07:42:30;5.70;;;3.30;;
60612;SDS011;46443;59.792;17.626;2022-07-22T07:44:56;5.60;;;3.10;;
60612;SDS011;46443;59.792;17.626;2022-07-22T07:47:22;6.63;;;3.17;;
60612;SDS011;46443;59.792;17.626;2022-07-22T07:49:48;6.93;;;3.10;;
60612;SDS011;46443;59.792;17.626;2022-07-22T07:52:15;6.03;;;2.80;;
60612;SDS011;46443;59.792;17.626;2022-07-22T07:54:41;6.67;;;3.00;;
60612;SDS011;46443;59.792;17.626;2022-07-22T07:57:08;5.53;;;2.80;;
60612;SDS011;46443;59.792;17.626;2022-07-22T07:59:35;3.93;;;2.57;;
60612;SDS011;46443;59.792;17.626;2022-07-22T08:02:01;8.00;;;3.13;;
60612;SDS011;46443;59.792;17.626;2022-07-22T08:04:27;4.37;;;2.63;;
60612;SDS011;46443;59.792;17.626;2022-07-22T08:06:53;5.80;;;2.80;;
60612;SDS011;46443;59.792;17.626;2022-07-22T08:09:19;4.83;;;2.60;;
60612;SDS011;46443;59.792;17.626;2022-07-22T08:11:45;5.77;;;2.97;;
60612;SDS011;46443;59.792;17.626;2022-07-22T08:14:11;4.87;;;2.60;;
60612;SDS011;46443;59.792;17.626;2022-07-22T08:16:37;4.17;;;2.60;;
60612;SDS011;46443;59.792;17.626;2022-07-22T08:19:03;4.57;;;2.43;;
60612;SDS011;46443;59.792;17.626;2022-07-22T08:21:29;4.27;;;2.57;;
60612;SDS011;46443;59.792;17.626;2022-07-22T08:23:55;3.70;;;2.70;;
60612;SDS011;46443;59.792;17.626;2022-07-22T08:26:21;5.33;;;3.10;;
60612;SDS011;46443;59.792;17.626;2022-07-22T08:28:47;5.80;;;2.97;;
60612;SDS011;46443;59.792;17.626;2022-07-22T08:31:13;5.23;;;2.60;;
60612;SDS011;46443;59.792;17.626;2022-07-22T08:33:39;5.37;;;2.83;;
60612;SDS011;46443;59.792;17.626;2022-07-22T08:36:06;5.30;;;2.50;;
60612;SDS011;46443;59.792;17.626;2022-07-22T08:38:32;5.77;;;2.87;;
60612;SDS011;46443;59.792;17.626;2022-07-22T08:40:58;7.27;;;3.10;;
60612;SDS011;46443;59.792;17.626;2022-07-22T08:43:25;4.20;;;2.60;;
60612;SDS011;46443;59.792;17.626;2022-07-22T08:45:52;8.83;;;3.40;;
60612;SDS011;46443;59.792;17.626;2022-07-22T08:48:18;5.23;;;2.83;;
60612;SDS011;46443;59.792;17.626;2022-07-22T08:50:44;6.50;;;2.60;;
60612;SDS011;46443;59.792;17.626;2022-07-22T08:53:11;6.57;;;2.83;;
60612;SDS011;46443;59.792;17.626;2022-07-22T08:55:43;7.13;;;3.83;;
60612;SDS011;46443;59.792;17.626;2022-07-22T08:58:10;6.87;;;3.23;;
60612;SDS011;46443;59.792;17.626;2022-07-22T09:00:36;5.90;;;3.13;;
60612;SDS011;46443;59.792;17.626;2022-07-22T09:03:15;6.77;;;3.27;;
60612;SDS011;46443;59.792;17.626;2022-07-22T09:05:42;5.70;;;3.13;;
60612;SDS011;46443;59.792;17.626;2022-07-22T09:08:08;7.07;;;3.70;;
60612;SDS011;46443;59.792;17.626;2022-07-22T09:10:35;10.23;;;3.40;;
60612;SDS011;46443;59.792;17.626;2022-07-22T09:13:02;4.97;;;3.13;;
60612;SDS011;46443;59.792;17.626;2022-07-22T09:15:32;7.53;;;3.43;;
60612;SDS011;46443;59.792;17.626;2022-07-22T09:18:00;9.20;;;3.87;;
60612;SDS011;46443;59.792;17.626;2022-07-22T09:20:27;8.07;;;3.83;;
60612;SDS011;46443;59.792;17.626;2022-07-22T09:22:54;5.87;;;3.57;;
60612;SDS011;46443;59.792;17.626;2022-07-22T09:27:47;8.00;;;3.53;;
60612;SDS011;46443;59.792;17.626;2022-07-22T09:30:15;6.07;;;3.53;;
60612;SDS011;46443;59.792;17.626;2022-07-22T09:32:41;9.87;;;3.80;;
60612;SDS011;46443;59.792;17.626;2022-07-22T09:35:08;6.17;;;3.40;;
60612;SDS011;46443;59.792;17.626;2022-07-22T09:37:35;8.70;;;3.90;;
60612;SDS011;46443;59.792;17.626;2022-07-22T09:40:14;8.30;;;4.03;;
60612;SDS011;46443;59.792;17.626;2022-07-22T09:42:47;8.45;;;3.92;;
60612;SDS011;46443;59.792;17.626;2022-07-22T09:45:14;10.10;;;4.07;;
60612;SDS011;46443;59.792;17.626;2022-07-22T09:47:41;6.70;;;3.73;;
60612;SDS011;46443;59.792;17.626;2022-07-22T09:52:46;6.83;;;3.67;;
60612;SDS011;46443;59.792;17.626;2022-07-22T09:55:14;7.47;;;3.80;;
60612;SDS011;46443;59.792;17.626;2022-07-22T09:57:40;7.40;;;3.90;;
60612;SDS011;46443;59.792;17.626;2022-07-22T10:00:06;8.47;;;4.00;;
60612;SDS011;46443;59.792;17.626;2022-07-22T10:05:27;7.88;;;3.97;;
60612;SDS011;46443;59.792;17.626;2022-07-22T10:07:53;8.67;;;3.60;;
60612;SDS011;46443;59.792;17.626;2022-07-22T10:10:20;9.03;;;4.27;;
60612;SDS011;46443;59.792;17.626;2022-07-22T10:12:51;7.33;;;3.80;;
60612;SDS011;46443;59.792;17.626;2022-07-22T10:15:17;9.20;;;4.07;;
60612;SDS011;46443;59.792;17.626;2022-07-22T10:17:45;7.87;;;3.87;;
60612;SDS011;46443;59.792;17.626;2022-07-22T10:20:13;8.02;;;3.92;;
60612;SDS011;46443;59.792;17.626;2022-07-22T10:25:08;8.17;;;3.80;;
60612;SDS011;46443;59.792;17.626;2022-07-22T10:30:16;9.33;;;3.83;;
60612;SDS011;46443;59.792;17.626;2022-07-22T10:32:43;7.27;;;3.90;;
60612;SDS011;46443;59.792;17.626;2022-07-22T10:37:36;9.47;;;4.20;;
60612;SDS011;46443;59.792;17.626;2022-07-22T10:45:25;8.80;;;4.07;;
60612;SDS011;46443;59.792;17.626;2022-07-22T10:47:52;6.60;;;3.43;;
60612;SDS011;46443;59.792;17.626;2022-07-22T10:53:10;7.93;;;3.80;;
60612;SDS011;46443;59.792;17.626;2022-07-22T10:55:37;8.83;;;3.77;;
60612;SDS011;46443;59.792;17.626;2022-07-22T11:00:48;7.47;;;4.13;;
60612;SDS011;46443;59.792;17.626;2022-07-22T11:03:23;6.60;;;3.50;;
60612;SDS011;46443;59.792;17.626;2022-07-22T11:05:50;7.93;;;3.63;;
60612;SDS011;46443;59.792;17.626;2022-07-22T11:08:16;6.00;;;3.30;;
60612;SDS011;46443;59.792;17.626;2022-07-22T11:10:49;7.23;;;3.43;;
60612;SDS011;46443;59.792;17.626;2022-07-22T11:13:31;7.27;;;3.83;;
60612;SDS011;46443;59.792;17.626;2022-07-22T11:16:20;8.00;;;3.17;;
60612;SDS011;46443;59.792;17.626;2022-07-22T11:21:16;6.22;;;3.45;;
60612;SDS011;46443;59.792;17.626;2022-07-22T11:23:42;6.27;;;2.87;;
60612;SDS011;46443;59.792;17.626;2022-07-22T11:26:09;5.80;;;3.23;;
60612;SDS011;46443;59.792;17.626;2022-07-22T11:28:42;7.30;;;3.50;;
60612;SDS011;46443;59.792;17.626;2022-07-22T11:31:09;5.40;;;2.87;;
60612;SDS011;46443;59.792;17.626;2022-07-22T11:33:35;5.50;;;3.27;;
60612;SDS011;46443;59.792;17.626;2022-07-22T11:36:05;5.97;;;2.90;;
60612;SDS011;46443;59.792;17.626;2022-07-22T11:40:57;6.37;;;2.83;;
60612;SDS011;46443;59.792;17.626;2022-07-22T11:43:24;6.63;;;2.80;;
60612;SDS011;46443;59.792;17.626;2022-07-22T11:45:55;9.40;;;2.90;;
60612;SDS011;46443;59.792;17.626;2022-07-22T11:48:21;5.30;;;2.60;;
60612;SDS011;46443;59.792;17.626;2022-07-22T11:50:47;5.60;;;2.90;;
60612;SDS011;46443;59.792;17.626;2022-07-22T11:53:13;8.37;;;2.60;;
60612;SDS011;46443;59.792;17.626;2022-07-22T11:55:39;5.40;;;2.50;;
60612;SDS011;46443;59.792;17.626;2022-07-22T11:58:05;5.83;;;2.50;;
60612;SDS011;46443;59.792;17.626;2022-07-22T12:00:31;6.80;;;2.97;;
60612;SDS011;46443;59.792;17.626;2022-07-22T12:02:57;6.63;;;2.77;;
60612;SDS011;46443;59.792;17.626;2022-07-22T12:05:23;7.03;;;2.67;;
60612;SDS011;46443;59.792;17.626;2022-07-22T12:07:49;4.63;;;2.60;;
60612;SDS011;46443;59.792;17.626;2022-07-22T12:10:15;5.33;;;2.67;;
60612;SDS011;46443;59.792;17.626;2022-07-22T12:12:42;4.43;;;2.87;;
60612;SDS011;46443;59.792;17.626;2022-07-22T12:15:08;5.57;;;2.60;;
60612;SDS011;46443;59.792;17.626;2022-07-22T12:17:35;7.03;;;2.60;;
60612;SDS011;46443;59.792;17.626;2022-07-22T12:20:10;4.73;;;2.53;;
60612;SDS011;46443;59.792;17.626;2022-07-22T12:22:44;4.53;;;2.57;;
60612;SDS011;46443;59.792;17.626;2022-07-22T12:25:10;4.70;;;2.43;;
60612;SDS011;46443;59.792;17.626;2022-07-22T12:27:36;7.37;;;2.80;;
60612;SDS011;46443;59.792;17.626;2022-07-22T12:30:10;4.47;;;2.40;;
60612;SDS011;46443;59.792;17.626;2022-07-22T12:32:36;4.77;;;2.20;;
60612;SDS011;46443;59.792;17.626;2022-07-22T12:35:11;4.77;;;2.67;;
60612;SDS011;46443;59.792;17.626;2022-07-22T12:42:35;5.30;;;2.60;;
60612;SDS011;46443;59.792;17.626;2022-07-22T12:45:08;6.18;;;2.20;;
60612;SDS011;46443;59.792;17.626;2022-07-22T12:47:38;4.00;;;2.40;;
60612;SDS011;46443;59.792;17.626;2022-07-22T12:50:25;3.60;;;2.20;;
60612;SDS011;46443;59.792;17.626;2022-07-22T12:52:52;3.90;;;2.40;;
60612;SDS011;46443;59.792;17.626;2022-07-22T12:55:18;5.13;;;2.20;;
60612;SDS011;46443;59.792;17.626;2022-07-22T12:57:44;4.67;;;2.40;;
60612;SDS011;46443;59.792;17.626;2022-07-22T13:00:10;4.60;;;2.57;;
60612;SDS011;46443;59.792;17.626;2022-07-22T13:02:41;5.83;;;2.40;;
60612;SDS011;46443;59.792;17.626;2022-07-22T13:05:07;3.17;;;1.97;;
60612;SDS011;46443;59.792;17.626;2022-07-22T13:07:33;5.27;;;2.20;;
60612;SDS011;46443;59.792;17.626;2022-07-22T13:09:59;5.87;;;2.50;;
60612;SDS011;46443;59.792;17.626;2022-07-22T13:12:25;4.83;;;2.40;;
60612;SDS011;46443;59.792;17.626;2022-07-22T13:14:51;5.20;;;2.10;;
60612;SDS011;46443;59.792;17.626;2022-07-22T13:17:17;4.37;;;2.10;;
60612;SDS011;46443;59.792;17.626;2022-07-22T13:19:44;5.10;;;2.20;;
60612;SDS011;46443;59.792;17.626;2022-07-22T13:22:10;5.70;;;2.20;;
60612;SDS011;46443;59.792;17.626;2022-07-22T13:24:36;4.13;;;2.23;;
60612;SDS011;46443;59.792;17.626;2022-07-22T13:27:02;4.20;;;2.30;;
60612;SDS011;46443;59.792;17.626;2022-07-22T13:29:28;4.93;;;2.30;;
60612;SDS011;46443;59.792;17.626;2022-07-22T13:31:54;4.03;;;2.37;;
60612;SDS011;46443;59.792;17.626;2022-07-22T13:34:20;6.07;;;2.20;;
60612;SDS011;46443;59.792;17.626;2022-07-22T13:36:46;3.27;;;2.17;;
60612;SDS011;46443;59.792;17.626;2022-07-22T13:39:13;4.77;;;2.17;;
60612;SDS011;46443;59.792;17.626;2022-07-22T13:41:38;5.33;;;2.30;;
60612;SDS011;46443;59.792;17.626;2022-07-22T13:44:04;3.50;;;1.97;;
60612;SDS011;46443;59.792;17.626;2022-07-22T13:46:36;4.10;;;2.05;;
60612;SDS011;46443;59.792;17.626;2022-07-22T13:49:03;5.63;;;2.30;;
60612;SDS011;46443;59.792;17.626;2022-07-22T13:51:29;5.77;;;2.20;;
60612;SDS011;46443;59.792;17.626;2022-07-22T13:53:56;4.67;;;2.33;;
60612;SDS011;46443;59.792;17.626;2022-07-22T13:56:22;6.73;;;2.57;;
60612;SDS011;46443;59.792;17.626;2022-07-22T13:58:48;4.90;;;2.30;;
60612;SDS011;46443;59.792;17.626;2022-07-22T14:01:14;5.17;;;2.73;;
60612;SDS011;46443;59.792;17.626;2022-07-22T14:03:40;4.07;;;2.30;;
60612;SDS011;46443;59.792;17.626;2022-07-22T14:06:06;5.00;;;2.50;;
60612;SDS011;46443;59.792;17.626;2022-07-22T14:08:34;6.00;;;2.30;;
60612;SDS011;46443;59.792;17.626;2022-07-22T14:11:00;5.87;;;2.57;;
60612;SDS011;46443;59.792;17.626;2022-07-22T14:13:26;6.13;;;2.43;;
60612;SDS011;46443;59.792;17.626;2022-07-22T14:15:52;5.67;;;2.57;;
60612;SDS011;46443;59.792;17.626;2022-07-22T14:18:18;7.13;;;2.57;;
60612;SDS011;46443;59.792;17.626;2022-07-22T14:20:44;5.03;;;2.20;;
60612;SDS011;46443;59.792;17.626;2022-07-22T14:23:10;5.00;;;2.60;;
60612;SDS011;46443;59.792;17.626;2022-07-22T14:25:38;7.20;;;2.30;;
60612;SDS011;46443;59.792;17.626;2022-07-22T14:28:04;4.87;;;2.30;;
60612;SDS011;46443;59.792;17.626;2022-07-22T14:30:31;6.40;;;2.40;;
60612;SDS011;46443;59.792;17.626;2022-07-22T14:32:57;4.53;;;2.27;;
60612;SDS011;46443;59.792;17.626;2022-07-22T14:35:23;5.13;;;2.50;;
60612;SDS011;46443;59.792;17.626;2022-07-22T14:37:49;4.70;;;2.20;;
60612;SDS011;46443;59.792;17.626;2022-07-22T14:40:15;4.30;;;2.13;;
60612;SDS011;46443;59.792;17.626;2022-07-22T14:42:41;4.87;;;2.23;;
60612;SDS011;46443;59.792;17.626;2022-07-22T14:45:07;7.80;;;2.87;;
60612;SDS011;46443;59.792;17.626;2022-07-22T14:47:36;5.32;;;2.35;;
60612;SDS011;46443;59.792;17.626;2022-07-22T14:50:03;4.90;;;2.40;;
60612;SDS011;46443;59.792;17.626;2022-07-22T14:52:29;5.37;;;2.57;;
60612;SDS011;46443;59.792;17.626;2022-07-22T14:54:55;5.80;;;2.60;;
60612;SDS011;46443;59.792;17.626;2022-07-22T14:57:21;6.00;;;2.50;;
60612;SDS011;46443;59.792;17.626;2022-07-22T14:59:47;4.60;;;2.40;;
60612;SDS011;46443;59.792;17.626;2022-07-22T15:02:13;6.00;;;2.20;;
60612;SDS011;46443;59.792;17.626;2022-07-22T15:04:40;5.77;;;2.80;;